Аэропорт
Петропавловск (UHPP)

 UHPP / PKC
ЗЦ Хабаровск
Петропавловск-Камчатский (UHPP)
Петропавловск-Камчатский (UHPP)
 53.16790, 158.45399  / 131 ft

 UHPP 161600Z 30001MPS 9999 NSC M14/M18 Q0989 R34L/CLRD70 NOSIG RMK QFE738/0984
 UHPP 160737Z 1609/1715 34003G12MPS 9999 BKN030CB TEMPO 1700/1709 29003G12MPS
UHPP_AIP_0217
показать схемы
Название сценария Тип сценария Flight Simulator 9 Flight Simulator X Prepar3D v2 Prepar3D v3 Prepar3D v4 xPlane
uhpp-scenery-fs9-0806 бесплатный


2019 © VATRUS division (Privacy Policy)